Time;durP1;ratioP1;P1;durP2;ratioP2;P2;SDS_P1;SDS_P2;PMS_P1;PMS_P2;Temp;Humidity;BMP_temperature;BMP_pressure;BME280_temperature;BME280_humidity;BME280_pressure;Samples;Min_cycle;Max_cycle;Signal;HPM_P1;HPM_P2
2023/05/21 00:00:46;;;;;;;;;18.25;16.50;;;;;15.25;72.18;100236.25;5079166;28;45251;-80
2023/05/21 00:03:12;;;;;;;;;19.25;17.75;;;;;15.15;73.21;100248.47;5099253;28;44774;-77
2023/05/21 00:05:41;;;;;;;;;18.50;17.25;;;;;14.79;72.92;100201.75;5083131;28;46576;-78
2023/05/21 00:08:07;;;;;;;;;16.25;15.50;;;;;15.03;73.44;100241.38;5081040;28;45438;-75
2023/05/21 00:10:33;;;;;;;;;15.75;14.75;;;;;14.91;73.17;100218.50;5093128;28;44869;-80
2023/05/21 00:12:59;;;;;;;;;16.00;15.50;;;;;14.97;73.76;100240.47;5078108;28;45549;-80
2023/05/21 00:15:24;;;;;;;;;18.00;17.25;;;;;14.97;73.37;100236.06;5079654;27;46006;-80
2023/05/21 00:17:50;;;;;;;;;19.75;18.00;;;;;14.90;74.52;100231.63;5068475;28;45486;-81
2023/05/21 00:20:16;;;;;;;;;17.00;16.25;;;;;14.81;74.33;100231.56;5059220;28;45449;-82
2023/05/21 00:22:42;;;;;;;;;17.75;16.50;;;;;14.79;74.33;100231.56;5076191;28;45351;-80
2023/05/21 00:25:09;;;;;;;;;18.50;17.50;;;;;14.79;73.90;100226.28;5060936;28;46302;-80
2023/05/21 00:27:35;;;;;;;;;14.25;14.00;;;;;14.75;74.06;100231.53;5061677;28;45497;-80
2023/05/21 00:30:00;;;;;;;;;16.00;15.75;;;;;14.55;73.53;100194.53;5058654;28;45173;-80
2023/05/21 00:32:26;;;;;;;;;15.75;13.50;;;;;14.69;73.18;100216.59;5074461;28;45478;-80
2023/05/21 00:34:51;;;;;;;;;17.25;15.00;;;;;14.69;72.82;100220.09;5078649;27;46069;-80
2023/05/21 00:37:17;;;;;;;;;13.00;13.00;;;;;14.65;72.75;100214.81;5062932;28;45925;-80
2023/05/21 00:39:42;;;;;;;;;17.00;14.50;;;;;14.67;72.76;100219.19;5059088;28;45396;-80
2023/05/21 00:42:08;;;;;;;;;19.25;17.75;;;;;14.65;72.44;100220.94;5064861;28;45382;-79
2023/05/21 00:44:34;;;;;;;;;21.50;18.25;;;;;14.60;72.49;100206.84;5059132;28;45468;-80
2023/05/21 00:47:03;;;;;;;;;17.50;16.75;;;;;14.60;73.22;100220.00;5058728;28;45342;-80
2023/05/21 00:49:29;;;;;;;;;16.50;15.75;;;;;14.42;73.37;100189.16;5058330;28;45384;-80
2023/05/21 00:51:55;;;;;;;;;20.25;18.00;;;;;14.21;73.64;100155.72;5057547;28;45486;-82
2023/05/21 00:54:22;;;;;;;;;17.75;17.50;;;;;14.47;73.73;100205.84;5066582;28;45878;-81
2023/05/21 00:56:48;;;;;;;;;17.00;16.25;;;;;14.47;72.93;100212.88;5078965;28;45448;-82
2023/05/21 00:59:17;;;;;;;;;17.00;16.75;;;;;14.50;73.25;100200.63;5078810;28;45450;-82
2023/05/21 01:01:44;;;;;;;;;16.75;16.00;;;;;14.56;73.06;100204.16;5065616;28;45529;-77
2023/05/21 01:04:10;;;;;;;;;19.75;17.75;;;;;14.56;73.36;100206.78;5058337;28;45417;-74
2023/05/21 01:06:36;;;;;;;;;17.50;17.00;;;;;14.52;73.14;100204.16;5058202;28;45411;-82
2023/05/21 01:09:05;;;;;;;;;15.25;15.00;;;;;14.36;73.35;100164.56;5065588;28;45335;-81
2023/05/21 01:11:39;;;;;;;;;16.00;16.00;;;;;14.62;72.54;100196.34;5059129;28;45618;-81
2023/05/21 01:14:08;;;;;;;;;17.25;14.00;;;;;14.65;72.95;100199.03;5063198;28;45462;-82
2023/05/21 01:16:36;;;;;;;;;15.50;14.00;;;;;14.61;72.82;100186.72;5057827;28;45495;-81
2023/05/21 01:19:04;;;;;;;;;18.50;16.75;;;;;14.50;73.03;100165.56;5065444;28;45521;-81
2023/05/21 01:21:30;;;;;;;;;18.25;17.00;;;;;14.50;72.85;100162.94;5073847;28;45598;-81
2023/05/21 01:23:55;;;;;;;;;18.50;15.50;;;;;13.95;72.86;100063.56;5063884;28;45513;-82
2023/05/21 01:26:21;;;;;;;;;18.75;16.75;;;;;14.47;72.63;100147.16;5065988;28;45402;-82
2023/05/21 01:28:46;;;;;;;;;17.00;17.00;;;;;14.74;72.61;100192.94;5057597;28;45335;-82
2023/05/21 01:31:47;;;;;;;;;17.25;17.25;;;;;14.77;72.07;100195.59;5058217;28;45331;-82
2023/05/21 01:34:16;;;;;;;;;18.00;18.00;;;;;14.76;72.13;100197.34;5041220;28;46191;-80
2023/05/21 01:36:50;;;;;;;;;18.00;15.00;;;;;14.64;72.14;100181.47;5072665;28;45427;-81
2023/05/21 01:39:22;;;;;;;;;16.25;15.00;;;;;14.48;72.55;100156.78;5050754;28;45465;-81
2023/05/21 01:41:52;;;;;;;;;18.50;15.50;;;;;14.70;72.54;100189.41;5076821;28;45345;-80
2023/05/21 01:44:18;;;;;;;;;18.50;17.00;;;;;14.77;71.90;100193.84;5060407;28;45455;-79
2023/05/21 01:46:43;;;;;;;;;17.75;16.50;;;;;14.49;72.43;100151.56;5072606;28;45531;-74
2023/05/21 01:49:10;;;;;;;;;25.00;18.25;;;;;14.58;72.57;100165.66;5057054;28;45509;-73
2023/05/21 01:51:36;;;;;;;;;17.50;16.75;;;;;14.68;72.85;100194.69;5057523;28;45403;-81
2023/05/21 01:54:02;;;;;;;;;18.25;17.50;;;;;14.72;72.55;100195.56;5056374;28;45237;-78
2023/05/21 01:56:27;;;;;;;;;17.00;17.00;;;;;14.73;71.77;100186.81;5076464;28;45392;-81
2023/05/21 01:58:55;;;;;;;;;18.50;15.50;;;;;14.70;72.50;100189.41;5068713;28;45423;-73
2023/05/21 02:01:21;;;;;;;;;17.25;17.25;;;;;14.67;72.21;100189.41;5057264;28;45554;-80
2023/05/21 02:03:47;;;;;;;;;16.75;16.25;;;;;14.25;72.08;100119.84;5068267;28;46444;-81
2023/05/21 02:06:12;;;;;;;;;15.75;15.00;;;;;14.63;72.31;100188.50;5059018;28;45459;-76
2023/05/21 02:08:38;;;;;;;;;19.00;19.00;;;;;14.64;72.11;100187.63;5077206;28;45292;-80
2023/05/21 02:11:03;;;;;;;;;19.50;17.25;;;;;14.66;72.46;100190.25;5077003;28;45308;-81
2023/05/21 02:13:29;;;;;;;;;22.00;20.00;;;;;14.72;72.03;100182.41;5076047;28;45448;-79
2023/05/21 02:15:55;;;;;;;;;21.50;18.50;;;;;14.63;71.18;100162.19;5076150;28;45292;-82
2023/05/21 02:18:20;;;;;;;;;21.50;19.25;;;;;14.78;71.20;100187.75;5069065;28;45537;-81
2023/05/21 02:20:46;;;;;;;;;18.75;16.00;;;;;14.64;71.15;100158.72;5050892;28;45501;-81
2023/05/21 02:23:12;;;;;;;;;21.00;18.25;;;;;14.74;70.86;100183.28;5061352;28;46049;-81
2023/05/21 02:25:37;;;;;;;;;19.00;17.75;;;;;14.75;71.15;100174.56;5071811;27;45342;-81
2023/05/21 02:28:03;;;;;;;;;19.00;18.25;;;;;14.62;71.39;100162.19;5056914;28;45501;-81
2023/05/21 02:30:29;;;;;;;;;17.75;15.75;;;;;14.55;70.96;100165.63;5056590;28;46567;-81
2023/05/21 02:32:57;;;;;;;;;21.00;20.00;;;;;14.63;70.91;100188.50;5071748;28;46117;-81
2023/05/21 02:35:23;;;;;;;;;21.25;18.25;;;;;14.35;71.11;100141.81;5076418;28;45345;-81
2023/05/21 02:37:48;;;;;;;;;21.00;20.00;;;;;14.51;71.43;100176.09;5068489;28;45489;-81
2023/05/21 02:40:14;;;;;;;;;21.00;19.50;;;;;14.50;71.20;100176.06;5056929;28;45869;-76
2023/05/21 02:42:40;;;;;;;;;19.50;16.50;;;;;14.26;71.32;100145.22;5072016;28;45934;-82
2023/05/21 02:45:11;;;;;;;;;18.00;18.00;;;;;14.43;71.88;100187.44;5056536;28;45157;-81
2023/05/21 02:47:39;;;;;;;;;21.00;18.75;;;;;14.36;72.18;100181.22;5055876;28;45675;-81
2023/05/21 02:50:06;;;;;;;;;19.75;18.75;;;;;14.19;71.71;100146.06;5056993;28;45502;-81
2023/05/21 02:52:32;;;;;;;;;23.25;19.75;;;;;14.38;71.79;100178.59;5073930;28;46147;-81
2023/05/21 02:54:57;;;;;;;;;21.50;19.25;;;;;14.39;71.64;100188.28;5064127;28;45366;-79
2023/05/21 02:57:23;;;;;;;;;18.00;18.00;;;;;14.07;71.77;100137.19;5060771;28;45404;-79
2023/05/21 02:59:48;;;;;;;;;22.00;19.75;;;;;14.29;71.71;100168.91;5080760;27;45453;-80
2023/05/21 03:02:14;;;;;;;;;22.00;20.25;;;;;14.36;72.37;100181.22;5071270;28;45536;-81
2023/05/21 03:04:44;;;;;;;;;16.00;16.00;;;;;14.41;71.47;100182.16;5060050;28;45400;-81
2023/05/21 03:07:16;;;;;;;;;20.75;19.00;;;;;14.42;71.80;100175.13;5076563;28;45387;-81
2023/05/21 03:09:42;;;;;;;;;20.00;19.25;;;;;14.17;71.49;100138.16;5080053;28;45505;-81
2023/05/21 03:12:08;;;;;;;;;20.00;19.75;;;;;14.29;71.99;100166.28;5078117;27;45857;-80
2023/05/21 03:14:34;;;;;;;;;19.75;19.75;;;;;14.17;72.04;100147.78;5073483;28;45415;-81
2023/05/21 03:17:02;;;;;;;;;22.00;18.25;;;;;14.36;72.33;100180.34;5059212;28;45398;-81
2023/05/21 03:19:29;;;;;;;;;22.00;20.25;;;;;14.33;72.70;100181.22;5073206;28;45373;-80
2023/05/21 03:21:55;;;;;;;;;18.50;15.50;;;;;14.29;72.20;100174.16;5077217;28;45611;-81
2023/05/21 03:24:20;;;;;;;;;19.00;18.00;;;;;14.27;72.51;100173.28;5063905;28;45517;-78
2023/05/21 03:26:47;;;;;;;;;19.00;19.00;;;;;14.25;72.37;100172.38;5070060;28;45417;-80
2023/05/21 03:29:12;;;;;;;;;20.50;20.50;;;;;14.20;72.59;100161.81;5059996;28;45245;-81
2023/05/21 03:31:38;;;;;;;;;19.00;18.75;;;;;14.17;72.99;100174.06;5067541;28;45809;-81
2023/05/21 03:34:03;;;;;;;;;20.75;20.50;;;;;14.17;73.10;100176.69;5065940;28;45596;-81
2023/05/21 03:36:29;;;;;;;;;21.25;19.75;;;;;13.98;73.05;100137.09;5059210;28;45400;-80
2023/05/21 03:38:54;;;;;;;;;18.00;17.75;;;;;14.13;72.73;100153.00;5074950;28;45385;-79
2023/05/21 03:41:20;;;;;;;;;21.25;20.50;;;;;14.28;72.61;100168.03;5058664;28;45300;-81
2023/05/21 03:43:45;;;;;;;;;21.00;20.00;;;;;14.29;72.53;100171.53;5059247;28;45529;-81
2023/05/21 03:46:11;;;;;;;;;20.75;20.50;;;;;14.28;72.55;100168.03;5065592;28;45422;-81
2023/05/21 03:48:36;;;;;;;;;22.00;20.50;;;;;14.30;72.88;100170.66;5067917;28;45356;-82
2023/05/21 03:51:02;;;;;;;;;19.00;17.50;;;;;14.29;72.89;100172.41;5073565;28;45942;-81
2023/05/21 03:53:28;;;;;;;;;16.50;16.00;;;;;14.23;72.67;100158.34;5061794;28;46053;-81
2023/05/21 03:55:54;;;;;;;;;19.75;19.50;;;;;14.39;72.52;100170.75;5061715;28;45534;-81
2023/05/21 03:58:22;;;;;;;;;22.25;20.50;;;;;14.41;71.96;100170.78;5073762;28;45867;-80
2023/05/21 04:00:48;;;;;;;;;21.75;21.00;;;;;14.38;72.30;100179.47;5064299;28;45498;-82
2023/05/21 04:03:14;;;;;;;;;23.00;22.00;;;;;14.08;72.36;100124.94;5059101;28;45403;-81
2023/05/21 04:05:44;;;;;;;;;18.50;18.50;;;;;14.33;72.63;100168.94;5058171;28;46152;-82
2023/05/21 04:08:09;;;;;;;;;20.25;16.75;;;;;14.32;72.26;100175.09;5065378;28;45987;-81
2023/05/21 04:10:35;;;;;;;;;21.25;18.75;;;;;14.33;72.21;100181.22;5068208;28;45260;-81
2023/05/21 04:13:00;;;;;;;;;20.50;20.50;;;;;14.35;72.03;100179.47;5058349;28;45527;-80
2023/05/21 04:15:29;;;;;;;;;19.25;18.25;;;;;14.37;72.21;100177.75;5074200;28;45561;-81
2023/05/21 04:17:55;;;;;;;;;21.75;21.00;;;;;14.37;71.95;100179.50;5058870;28;45479;-81
2023/05/21 04:20:21;;;;;;;;;21.00;21.00;;;;;14.19;72.55;100159.19;5068617;28;46085;-81
2023/05/21 04:22:47;;;;;;;;;23.50;22.00;;;;;14.37;72.24;100188.25;5064173;28;45221;-81
2023/05/21 04:25:13;;;;;;;;;20.75;20.75;;;;;14.37;71.90;100177.75;5060254;28;45434;-82
2023/05/21 04:27:38;;;;;;;;;24.25;22.50;;;;;14.39;72.12;100172.50;5078441;28;45318;-81
2023/05/21 04:30:04;;;;;;;;;26.50;23.75;;;;;14.42;72.35;100186.53;5069133;28;45647;-81
2023/05/21 04:32:32;;;;;;;;;24.50;24.50;;;;;14.39;72.45;100186.50;5072147;28;45478;-81
2023/05/21 04:34:59;;;;;;;;;24.00;21.25;;;;;14.38;72.16;100181.25;5061029;28;45451;-80
2023/05/21 04:37:26;;;;;;;;;22.25;20.50;;;;;14.35;72.87;100192.59;5072440;28;45582;-81
2023/05/21 04:39:55;;;;;;;;;23.00;21.75;;;;;14.28;73.08;100199.56;5058238;28;45520;-81
2023/05/21 04:42:23;;;;;;;;;21.50;18.50;;;;;14.20;73.40;100195.97;5072590;28;45477;-80
2023/05/21 04:44:49;;;;;;;;;24.75;22.50;;;;;14.15;73.29;100189.81;5060669;28;45569;-74
2023/05/21 04:47:17;;;;;;;;;20.50;19.00;;;;;14.17;73.31;100200.34;5071849;28;45434;-81
2023/05/21 04:49:43;;;;;;;;;22.75;21.00;;;;;14.01;73.39;100181.78;5065674;28;45331;-82
2023/05/21 04:52:09;;;;;;;;;25.00;21.25;;;;;14.17;73.51;100200.34;5067808;28;45347;-81
2023/05/21 04:54:37;;;;;;;;;19.75;18.25;;;;;14.20;73.03;100201.22;5057789;28;45387;-77
2023/05/21 04:57:03;;;;;;;;;19.00;19.00;;;;;14.26;73.13;100203.03;5065205;28;45383;-81
2023/05/21 04:59:29;;;;;;;;;16.50;16.25;;;;;14.28;73.20;100193.41;5057838;28;45979;-81
2023/05/21 05:01:54;;;;;;;;;25.75;22.75;;;;;14.18;72.99;100183.69;5057327;28;45672;-74
2023/05/21 05:04:20;;;;;;;;;24.50;22.50;;;;;14.38;72.83;100213.66;5073903;28;45542;-81
2023/05/21 05:06:46;;;;;;;;;20.50;19.25;;;;;14.35;72.35;100200.50;5058386;28;45504;-79
2023/05/21 05:09:11;;;;;;;;;21.75;20.00;;;;;14.27;72.47;100175.91;5057808;28;45989;-81
2023/05/21 05:11:37;;;;;;;;;16.75;16.25;;;;;14.50;71.97;100205.00;5070740;28;45505;-81
2023/05/21 05:14:02;;;;;;;;;21.50;20.00;;;;;14.53;72.01;100205.03;5073662;28;45878;-81
2023/05/21 05:16:28;;;;;;;;;19.75;18.50;;;;;14.55;72.09;100202.41;5056944;28;45450;-79
2023/05/21 05:18:54;;;;;;;;;22.50;21.00;;;;;14.39;71.87;100168.13;5064800;28;45595;-74
2023/05/21 05:21:22;;;;;;;;;23.00;21.50;;;;;14.55;72.17;100190.16;5064757;28;45561;-82
2023/05/21 05:23:48;;;;;;;;;21.00;20.75;;;;;14.46;71.89;100164.69;5073254;27;45512;-80
2023/05/21 05:26:13;;;;;;;;;22.50;20.75;;;;;14.64;71.72;100186.72;5062366;28;45461;-81
2023/05/21 05:28:39;;;;;;;;;24.25;22.25;;;;;14.77;71.22;100190.34;5068355;28;45611;-81
2023/05/21 05:31:05;;;;;;;;;21.00;18.50;;;;;14.66;70.76;100143.84;5069698;28;45355;-82
2023/05/21 05:33:31;;;;;;;;;20.75;19.75;;;;;14.97;70.71;100164.19;5075956;27;45469;-80
2023/05/21 05:35:56;;;;;;;;;23.00;19.50;;;;;15.29;69.93;100194.16;5072614;28;45420;-81
2023/05/21 05:38:22;;;;;;;;;19.50;19.50;;;;;15.45;69.52;100186.34;5057431;28;46173;-80
2023/05/21 05:40:47;;;;;;;;;20.00;19.25;;;;;15.58;69.26;100185.53;5057497;28;45462;-80
2023/05/21 05:43:13;;;;;;;;;18.75;17.50;;;;;15.74;68.81;100177.69;5056943;28;45360;-81
2023/05/21 05:45:38;;;;;;;;;18.75;17.50;;;;;15.89;68.03;100180.38;5057404;28;45587;-81
2023/05/21 05:48:04;;;;;;;;;22.25;20.25;;;;;16.02;68.05;100176.03;5058527;28;46008;-81
2023/05/21 05:50:29;;;;;;;;;25.00;21.00;;;;;16.18;67.13;100177.81;5055802;28;45524;-74
2023/05/21 05:52:55;;;;;;;;;22.25;20.00;;;;;16.22;66.79;100153.22;5068205;28;45576;-75
2023/05/21 05:55:20;;;;;;;;;23.50;22.50;;;;;16.41;66.36;100166.38;5073274;28;45291;-81
2023/05/21 05:57:46;;;;;;;;;22.75;22.00;;;;;16.52;66.36;100175.19;5056384;28;45662;-74
2023/05/21 06:00:12;;;;;;;;;24.00;22.50;;;;;16.68;65.60;100170.78;5067799;28;45527;-81
2023/05/21 06:02:38;;;;;;;;;23.00;21.50;;;;;16.81;65.36;100180.47;5061500;28;45556;-81
2023/05/21 06:05:05;;;;;;;;;23.00;21.75;;;;;17.08;64.85;100168.09;5056908;28;45561;-80
2023/05/21 06:07:31;;;;;;;;;26.00;23.25;;;;;18.77;60.03;100153.84;5056798;28;45534;-81
2023/05/21 06:09:57;;;;;;;;;24.75;23.25;;;;;20.62;56.82;100164.69;5050072;28;45327;-74
2023/05/21 06:12:23;;;;;;;;;24.50;22.25;;;;;21.98;53.04;100166.38;5061877;28;45265;-81
2023/05/21 06:14:49;;;;;;;;;22.00;20.75;;;;;23.03;50.54;100155.84;5072350;28;45500;-81
2023/05/21 06:17:15;;;;;;;;;21.00;17.67;;;;;23.80;46.85;100154.50;5056436;28;45438;-82
2023/05/21 06:19:40;;;;;;;;;20.00;18.00;;;;;24.46;44.93;100156.84;5056695;28;45527;-82
2023/05/21 06:22:06;;;;;;;;;20.25;19.50;;;;;25.26;43.88;100148.75;5056819;28;45509;-82
2023/05/21 06:24:31;;;;;;;;;22.00;19.00;;;;;25.93;41.89;100150.66;5071112;28;45478;-82
2023/05/21 06:26:57;;;;;;;;;16.67;15.33;;;;;26.52;41.58;100143.78;5069680;28;45881;-81
2023/05/21 06:29:22;;;;;;;;;13.33;13.00;;;;;27.07;42.31;100147.69;5056421;28;45512;-78
2023/05/21 06:31:48;;;;;;;;;15.67;15.00;;;;;27.88;40.49;100141.28;5056305;28;45444;-82
2023/05/21 06:34:13;;;;;;;;;16.33;16.00;;;;;28.76;37.88;100151.22;5057517;28;45593;-81
2023/05/21 06:36:39;;;;;;;;;17.00;16.33;;;;;29.55;37.00;100149.78;5069856;28;46119;-81
2023/05/21 06:39:05;;;;;;;;;16.67;16.00;;;;;30.26;34.96;100146.69;5038383;28;45542;-81
2023/05/21 06:41:31;;;;;;;;;16.00;14.33;;;;;30.30;34.37;100129.41;5056535;28;45501;-81
2023/05/21 06:43:56;;;;;;;;;16.33;15.67;;;;;30.75;33.09;100120.47;5056744;28;45479;-82
2023/05/21 06:46:22;;;;;;;;;17.00;16.00;;;;;31.50;31.87;100151.78;5061725;28;45915;-82
2023/05/21 06:48:47;;;;;;;;;19.00;18.67;;;;;31.58;30.94;100132.41;5066007;28;45741;-82
2023/05/21 06:51:13;;;;;;;;;19.00;18.67;;;;;31.86;31.35;100147.69;5067822;28;45350;-79
2023/05/21 06:53:39;;;;;;;;;17.67;17.00;;;;;32.04;31.37;100150.19;5059565;28;46029;-83
2023/05/21 06:56:05;;;;;;;;;18.00;15.67;;;;;32.38;30.94;100147.94;5074600;27;45625;-82
2023/05/21 06:58:30;;;;;;;;;16.00;15.33;;;;;32.79;31.38;100138.84;5070610;28;45396;-77
2023/05/21 07:00:57;;;;;;;;;18.67;18.00;;;;;33.04;29.35;100136.16;5064225;28;45428;-83
2023/05/21 07:03:22;;;;;;;;;17.00;17.00;;;;;33.08;29.01;100105.19;5076222;28;45497;-83
2023/05/21 07:05:48;;;;;;;;;15.00;14.67;;;;;32.00;32.92;100148.63;5056545;27;46978;-83
2023/05/21 07:08:13;;;;;;;;;15.67;15.33;;;;;30.46;33.17;100150.03;5060555;28;45337;-79
2023/05/21 07:10:39;;;;;;;;;16.00;14.67;;;;;29.54;33.72;100148.91;5075256;27;45279;-82
2023/05/21 07:13:04;;;;;;;;;22.33;19.00;;;;;28.56;34.17;100101.22;5063506;28;45487;-83
2023/05/21 07:15:30;;;;;;;;;21.00;18.00;;;;;27.87;35.73;100152.06;5055751;28;45614;-76
2023/05/21 07:17:56;;;;;;;;;16.33;15.33;;;;;28.21;35.65;100147.78;5059867;28;45423;-83
2023/05/21 07:20:21;;;;;;;;;21.67;21.67;;;;;27.89;36.01;100152.91;5075981;28;45323;-83
2023/05/21 07:22:46;;;;;;;;;18.33;16.33;;;;;27.28;37.04;100129.81;5062522;27;45548;-83
2023/05/21 07:25:12;;;;;;;;;17.33;17.00;;;;;27.03;37.70;100148.78;5055606;28;46435;-82
2023/05/21 07:27:37;;;;;;;;;16.33;16.00;;;;;27.15;38.40;100151.75;5056220;28;45733;-82
2023/05/21 07:30:04;;;;;;;;;15.67;15.00;;;;;27.54;37.11;100153.59;5055836;28;45418;-83
2023/05/21 07:32:29;;;;;;;;;19.00;18.00;;;;;27.26;36.78;100145.97;5056029;28;45544;-80
2023/05/21 07:34:55;;;;;;;;;16.00;15.33;;;;;27.65;37.21;100120.03;5055576;28;45398;-81
2023/05/21 07:37:21;;;;;;;;;16.00;15.00;;;;;29.65;33.24;100113.31;5056094;28;45874;-83
2023/05/21 07:39:46;;;;;;;;;17.00;16.00;;;;;30.89;31.72;100137.56;5056250;28;45900;-82
2023/05/21 07:42:12;;;;;;;;;17.67;17.67;;;;;31.15;31.84;100143.19;5058286;28;45297;-83
2023/05/21 07:44:37;;;;;;;;;18.67;18.00;;;;;31.59;30.45;100142.22;5059158;28;45473;-82
2023/05/21 07:47:03;;;;;;;;;14.67;14.00;;;;;32.79;29.02;100141.53;5075473;27;45262;-81
2023/05/21 07:49:29;;;;;;;;;15.67;15.33;;;;;33.62;28.40;100141.13;5062118;28;45654;-83
2023/05/21 07:51:55;;;;;;;;;17.00;16.00;;;;;33.95;27.90;100137.78;5070740;28;45463;-83
2023/05/21 07:54:21;;;;;;;;;15.00;14.67;;;;;34.29;28.02;100119.03;5067060;28;45391;-82
2023/05/21 07:56:46;;;;;;;;;17.00;17.00;;;;;34.86;26.99;100112.81;5078231;28;45497;-82
2023/05/21 07:59:13;;;;;;;;;16.00;15.67;;;;;35.59;25.56;100147.78;5070806;28;45524;-82
2023/05/21 08:01:39;;;;;;;;;15.67;15.67;;;;;35.96;25.28;100144.81;5058580;28;45625;-76
2023/05/21 08:04:05;;;;;;;;;17.00;16.00;;;;;36.38;25.18;100121.31;5058217;28;46333;-83
2023/05/21 08:06:32;;;;;;;;;14.00;13.67;;;;;36.61;24.75;100113.91;5058222;28;45345;-83
2023/05/21 08:09:00;;;;;;;;;12.67;12.67;;;;;36.56;24.20;100131.63;5065115;28;45301;-83
2023/05/21 08:11:26;;;;;;;;;16.33;15.67;;;;;36.72;24.43;100136.63;5067289;28;45496;-83
2023/05/21 08:13:52;;;;;;;;;16.33;15.33;;;;;36.40;24.66;100116.59;5071892;28;45635;-83
2023/05/21 08:16:17;;;;;;;;;15.67;15.67;;;;;37.55;23.40;100134.81;5058429;28;45497;-79
2023/05/21 08:18:43;;;;;;;;;15.67;14.00;;;;;37.86;22.98;100132.03;5058028;28;45404;-83
2023/05/21 08:21:09;;;;;;;;;14.33;14.33;;;;;37.88;23.45;100128.16;5069221;28;45391;-83
2023/05/21 08:23:34;;;;;;;;;13.67;13.00;;;;;36.48;25.27;100128.69;5063509;28;45855;-75
2023/05/21 08:26:00;;;;;;;;;13.67;13.67;;;;;34.97;26.33;100090.22;5073946;28;45516;-83
2023/05/21 08:28:27;;;;;;;;;20.67;17.67;;;;;33.78;27.70;100116.50;5056984;28;45486;-83
2023/05/21 08:30:53;;;;;;;;;13.33;13.00;;;;;32.87;28.83;100126.53;5064031;28;45604;-82
2023/05/21 08:33:19;;;;;;;;;15.67;13.67;;;;;31.96;30.17;100131.75;5057667;28;45535;-78
2023/05/21 08:35:44;;;;;;;;;13.00;13.00;;;;;31.29;31.24;100135.09;5075020;28;45422;-83
2023/05/21 08:38:10;;;;;;;;;17.00;15.33;;;;;29.65;31.46;99983.25;5070921;28;45805;-76
2023/05/21 08:40:35;;;;;;;;;14.00;14.00;;;;;29.82;32.29;100128.53;5067990;28;45501;-76
2023/05/21 08:43:01;;;;;;;;;14.33;13.33;;;;;29.47;33.46;100125.97;5077016;28;46446;-82
2023/05/21 08:45:36;;;;;;;;;15.33;13.33;;;;;29.93;33.00;100103.69;5066793;28;45467;-82
2023/05/21 08:48:03;;;;;;;;;15.00;15.00;;;;;31.05;31.62;100121.31;5057545;28;45641;-80
2023/05/21 08:50:30;;;;;;;;;15.00;14.67;;;;;32.15;29.62;100120.59;5066667;28;45516;-80
2023/05/21 08:52:57;;;;;;;;;18.33;15.67;;;;;32.49;29.36;100091.28;5057495;28;46300;-78
2023/05/21 08:55:23;;;;;;;;;16.00;15.67;;;;;33.47;28.33;100103.34;5057190;28;45501;-79
2023/05/21 08:57:49;;;;;;;;;16.00;15.33;;;;;32.90;28.20;100122.72;5057757;28;45430;-79
2023/05/21 09:00:15;;;;;;;;;16.00;14.67;;;;;32.96;29.36;100105.22;5056694;28;45561;-77
2023/05/21 09:02:43;;;;;;;;;14.33;12.00;;;;;33.33;28.98;100089.94;5054599;28;46356;-77
2023/05/21 09:05:09;;;;;;;;;13.33;12.33;;;;;33.11;29.11;100106.88;5062718;28;45493;-81
2023/05/21 09:07:54;;;;;;;;;14.00;13.67;;;;;31.69;28.83;100099.31;5059546;28;45429;-80
2023/05/21 09:10:26;;;;;;;;;13.33;12.00;;;;;32.35;29.67;100110.28;5068752;28;45505;-76
2023/05/21 09:12:52;;;;;;;;;15.33;13.33;;;;;33.65;28.62;100113.84;5064615;28;45717;-80
2023/05/21 09:15:18;;;;;;;;;17.33;16.33;;;;;34.53;27.19;100104.56;5066538;27;45498;-75
2023/05/21 09:17:49;;;;;;;;;14.33;13.00;;;;;35.40;26.38;100111.25;5070286;27;45713;-76
2023/05/21 09:20:26;;;;;;;;;13.00;12.67;;;;;35.19;25.67;100102.13;5061118;28;45280;-80
2023/05/21 09:22:52;;;;;;;;;11.67;11.00;;;;;35.98;25.47;100102.03;5056154;28;46003;-80
2023/05/21 09:25:22;;;;;;;;;12.67;12.00;;;;;35.19;25.09;100042.41;5057678;28;45494;-80
2023/05/21 09:27:48;;;;;;;;;11.33;10.67;;;;;33.81;26.41;100109.00;5058256;28;45391;-80
2023/05/21 09:30:15;;;;;;;;;12.67;12.33;;;;;32.35;28.29;100121.09;5057070;28;45363;-81
2023/05/21 09:32:41;;;;;;;;;14.00;14.00;;;;;31.51;29.79;100121.16;5057098;28;45476;-79
2023/05/21 09:35:09;;;;;;;;;14.00;13.33;;;;;30.81;30.76;100098.53;5057581;28;45495;-80
2023/05/21 09:37:43;;;;;;;;;12.33;12.33;;;;;29.68;31.51;100058.44;5056075;28;45568;-80
2023/05/21 09:40:11;;;;;;;;;15.33;14.00;;;;;29.34;32.78;100128.47;5057668;28;45466;-79
2023/05/21 09:42:46;;;;;;;;;13.00;12.67;;;;;28.79;32.94;100123.34;5055897;28;48120;-80
2023/05/21 09:45:26;;;;;;;;;15.00;14.67;;;;;28.58;34.41;100121.78;5057065;28;45481;-79
2023/05/21 09:47:54;;;;;;;;;15.33;15.33;;;;;28.32;33.79;100130.16;5056138;28;45413;-80
2023/05/21 09:50:26;;;;;;;;;13.33;13.33;;;;;28.06;35.02;100130.63;5057624;28;45359;-78
2023/05/21 09:52:54;;;;;;;;;15.67;15.00;;;;;28.01;35.42;100132.63;5057135;28;46233;-80
2023/05/21 09:55:24;;;;;;;;;13.33;12.00;;;;;27.60;35.83;100095.25;5069520;28;45458;-80
2023/05/21 09:57:50;;;;;;;;;16.00;14.00;;;;;27.60;36.35;100125.63;5058744;28;45442;-80
2023/05/21 10:00:21;;;;;;;;;17.33;17.00;;;;;27.44;36.50;100128.16;5056714;28;45427;-79
2023/05/21 10:02:48;;;;;;;;;18.67;17.67;;;;;27.86;36.11;100136.91;5071001;28;46278;-79
2023/05/21 10:05:15;;;;;;;;;19.00;18.00;;;;;27.73;35.97;100136.63;5056064;28;45346;-79
2023/05/21 10:07:43;;;;;;;;;20.67;19.00;;;;;27.44;36.56;100135.34;5065829;28;45263;-79
2023/05/21 10:10:13;;;;;;;;;18.00;17.33;;;;;27.64;36.86;100132.56;5062082;28;45546;-80
2023/05/21 10:12:43;;;;;;;;;14.67;14.33;;;;;27.84;36.69;100133.44;5057770;28;45385;-79
2023/05/21 10:15:16;;;;;;;;;17.67;17.00;;;;;28.88;35.53;100133.59;5068789;28;45514;-78
2023/05/21 10:17:43;;;;;;;;;18.67;16.67;;;;;28.96;35.10;100134.06;5055851;28;45439;-77
2023/05/21 10:20:12;;;;;;;;;18.67;18.33;;;;;28.11;36.55;100134.81;5056844;28;45503;-78
2023/05/21 10:22:38;;;;;;;;;19.67;19.00;;;;;28.10;36.48;100121.47;5075558;28;46191;-80
2023/05/21 10:25:06;;;;;;;;;18.00;18.00;;;;;28.13;36.40;100108.75;5072122;28;45222;-79
2023/05/21 10:27:33;;;;;;;;;17.67;16.67;;;;;28.45;36.43;100130.44;5074932;28;45533;-74
2023/05/21 10:29:59;;;;;;;;;16.00;15.33;;;;;28.42;36.60;100135.94;5058513;28;45408;-79
2023/05/21 10:32:27;;;;;;;;;16.33;16.33;;;;;27.90;37.07;100114.38;5055211;28;45450;-81
2023/05/21 10:34:53;;;;;;;;;22.33;21.33;;;;;27.81;37.36;100130.88;5055290;28;45324;-80
2023/05/21 10:37:28;;;;;;;;;17.33;16.67;;;;;27.71;37.90;100138.50;5068587;28;45348;-80
2023/05/21 10:39:54;;;;;;;;;19.67;19.00;;;;;27.63;37.55;100127.28;5074845;28;45459;-78
2023/05/21 10:42:22;;;;;;;;;21.00;19.67;;;;;27.04;38.05;100132.63;5069499;28;45554;-74
2023/05/21 10:45:25;;;;;;;;;22.00;21.33;;;;;26.76;38.78;100133.00;5065424;28;45586;-80
2023/05/21 10:48:09;;;;;;;;;25.67;25.00;;;;;26.14;39.93;100134.66;5064727;28;45351;-80
2023/05/21 10:50:46;;;;;;;;;22.33;20.67;;;;;25.57;41.60;100132.41;5055642;28;45506;-78
2023/05/21 10:53:37;;;;;;;;;19.67;18.33;;;;;25.18;42.70;100132.09;5062203;27;45430;-80
2023/05/21 10:56:33;;;;;;;;;23.25;20.00;;;;;24.66;43.58;100140.19;5070724;28;45521;-80
2023/05/21 10:59:04;;;;;;;;;17.67;16.67;;;;;24.20;43.41;100131.03;5061106;28;45493;-80
2023/05/21 11:01:36;;;;;;;;;16.67;16.00;;;;;23.96;44.27;100132.69;5076229;28;45391;-80
2023/05/21 11:04:03;;;;;;;;;18.00;17.00;;;;;24.05;44.43;100132.38;5060000;28;45573;-79
2023/05/21 11:06:29;;;;;;;;;21.33;19.00;;;;;24.15;45.00;100111.59;5055457;28;45355;-77
2023/05/21 11:08:55;;;;;;;;;18.00;16.67;;;;;24.43;44.92;100135.56;5063001;28;45546;-80